sensor_id;sensor_type;location;lat;lon;timestamp;P1;durP1;ratioP1;P2;durP2;ratioP2
6757;SDS011;3416;53.074;8.822;2022-08-01T00:01:30;5.67;;;5.27;;
6757;SDS011;3416;53.074;8.822;2022-08-01T00:03:59;7.27;;;6.77;;
6757;SDS011;3416;53.074;8.822;2022-08-01T00:06:26;8.83;;;7.50;;
6757;SDS011;3416;53.074;8.822;2022-08-01T00:08:53;8.63;;;7.83;;
6757;SDS011;3416;53.074;8.822;2022-08-01T00:11:21;6.83;;;6.23;;
6757;SDS011;3416;53.074;8.822;2022-08-01T00:13:54;8.00;;;6.07;;
6757;SDS011;3416;53.074;8.822;2022-08-01T00:16:21;9.63;;;8.63;;
6757;SDS011;3416;53.074;8.822;2022-08-01T00:18:48;7.10;;;6.50;;
6757;SDS011;3416;53.074;8.822;2022-08-01T00:21:17;9.13;;;8.20;;
6757;SDS011;3416;53.074;8.822;2022-08-01T00:23:44;10.13;;;9.23;;
6757;SDS011;3416;53.074;8.822;2022-08-01T00:26:11;9.37;;;8.40;;
6757;SDS011;3416;53.074;8.822;2022-08-01T00:28:38;9.17;;;8.33;;
6757;SDS011;3416;53.074;8.822;2022-08-01T00:31:05;9.77;;;8.47;;
6757;SDS011;3416;53.074;8.822;2022-08-01T00:33:32;11.60;;;10.47;;
6757;SDS011;3416;53.074;8.822;2022-08-01T00:35:59;11.10;;;9.97;;
6757;SDS011;3416;53.074;8.822;2022-08-01T00:38:27;16.67;;;11.97;;
6757;SDS011;3416;53.074;8.822;2022-08-01T00:40:54;12.33;;;11.07;;
6757;SDS011;3416;53.074;8.822;2022-08-01T00:43:21;11.37;;;10.20;;
6757;SDS011;3416;53.074;8.822;2022-08-01T00:45:48;11.40;;;10.17;;
6757;SDS011;3416;53.074;8.822;2022-08-01T00:48:15;12.57;;;11.27;;
6757;SDS011;3416;53.074;8.822;2022-08-01T00:50:42;14.43;;;12.93;;
6757;SDS011;3416;53.074;8.822;2022-08-01T00:53:09;15.23;;;12.83;;
6757;SDS011;3416;53.074;8.822;2022-08-01T00:55:38;16.33;;;13.83;;
6757;SDS011;3416;53.074;8.822;2022-08-01T00:58:05;14.00;;;12.60;;
6757;SDS011;3416;53.074;8.822;2022-08-01T01:00:32;16.10;;;14.43;;
6757;SDS011;3416;53.074;8.822;2022-08-01T01:03:01;14.90;;;13.40;;
6757;SDS011;3416;53.074;8.822;2022-08-01T01:05:28;17.57;;;13.50;;
6757;SDS011;3416;53.074;8.822;2022-08-01T01:07:59;13.10;;;11.80;;
6757;SDS011;3416;53.074;8.822;2022-08-01T01:10:30;19.83;;;14.03;;
6757;SDS011;3416;53.074;8.822;2022-08-01T01:13:06;13.70;;;11.90;;
6757;SDS011;3416;53.074;8.822;2022-08-01T01:15:39;13.33;;;10.90;;
6757;SDS011;3416;53.074;8.822;2022-08-01T01:18:11;11.00;;;9.90;;
6757;SDS011;3416;53.074;8.822;2022-08-01T01:20:42;10.30;;;9.20;;
6757;SDS011;3416;53.074;8.822;2022-08-01T01:23:29;9.30;;;8.30;;
6757;SDS011;3416;53.074;8.822;2022-08-01T01:26:21;9.97;;;9.03;;
6757;SDS011;3416;53.074;8.822;2022-08-01T01:29:03;11.40;;;10.20;;
6757;SDS011;3416;53.074;8.822;2022-08-01T01:31:32;13.30;;;8.83;;
6757;SDS011;3416;53.074;8.822;2022-08-01T01:34:06;12.13;;;10.57;;
6757;SDS011;3416;53.074;8.822;2022-08-01T01:36:35;13.10;;;10.10;;
6757;SDS011;3416;53.074;8.822;2022-08-01T01:39:04;13.13;;;10.00;;
6757;SDS011;3416;53.074;8.822;2022-08-01T01:41:32;13.23;;;11.13;;
6757;SDS011;3416;53.074;8.822;2022-08-01T01:44:03;10.43;;;9.33;;
6757;SDS011;3416;53.074;8.822;2022-08-01T01:46:31;15.40;;;12.03;;
6757;SDS011;3416;53.074;8.822;2022-08-01T01:48:59;17.40;;;12.13;;
6757;SDS011;3416;53.074;8.822;2022-08-01T01:51:27;14.07;;;11.97;;
6757;SDS011;3416;53.074;8.822;2022-08-01T01:53:55;20.83;;;12.87;;
6757;SDS011;3416;53.074;8.822;2022-08-01T01:56:24;16.03;;;12.73;;
6757;SDS011;3416;53.074;8.822;2022-08-01T01:58:54;16.90;;;13.30;;
6757;SDS011;3416;53.074;8.822;2022-08-01T02:01:25;15.43;;;11.80;;
6757;SDS011;3416;53.074;8.822;2022-08-01T02:03:56;16.33;;;12.27;;
6757;SDS011;3416;53.074;8.822;2022-08-01T02:06:24;17.97;;;13.53;;
6757;SDS011;3416;53.074;8.822;2022-08-01T02:08:53;18.27;;;13.60;;
6757;SDS011;3416;53.074;8.822;2022-08-01T02:11:21;24.77;;;13.90;;
6757;SDS011;3416;53.074;8.822;2022-08-01T02:13:51;19.40;;;14.93;;
6757;SDS011;3416;53.074;8.822;2022-08-01T02:16:20;16.10;;;13.00;;
6757;SDS011;3416;53.074;8.822;2022-08-01T02:18:50;17.70;;;14.20;;
6757;SDS011;3416;53.074;8.822;2022-08-01T02:21:20;16.73;;;13.83;;
6757;SDS011;3416;53.074;8.822;2022-08-01T02:23:52;22.73;;;14.93;;
6757;SDS011;3416;53.074;8.822;2022-08-01T02:26:21;13.93;;;10.13;;
6757;SDS011;3416;53.074;8.822;2022-08-01T02:28:51;16.10;;;11.67;;
6757;SDS011;3416;53.074;8.822;2022-08-01T02:31:22;8.27;;;7.03;;
6757;SDS011;3416;53.074;8.822;2022-08-01T02:33:53;9.17;;;7.47;;
6757;SDS011;3416;53.074;8.822;2022-08-01T02:36:23;8.93;;;7.43;;
6757;SDS011;3416;53.074;8.822;2022-08-01T02:38:54;9.73;;;8.73;;
6757;SDS011;3416;53.074;8.822;2022-08-01T02:41:23;8.60;;;7.57;;
6757;SDS011;3416;53.074;8.822;2022-08-01T02:43:52;8.83;;;7.87;;
6757;SDS011;3416;53.074;8.822;2022-08-01T02:46:28;7.13;;;6.43;;
6757;SDS011;3416;53.074;8.822;2022-08-01T02:49:01;9.10;;;8.20;;
6757;SDS011;3416;53.074;8.822;2022-08-01T02:51:31;9.87;;;8.97;;
6757;SDS011;3416;53.074;8.822;2022-08-01T02:53:59;9.47;;;8.57;;
6757;SDS011;3416;53.074;8.822;2022-08-01T02:56:30;10.23;;;9.33;;
6757;SDS011;3416;53.074;8.822;2022-08-01T02:59:01;11.37;;;10.17;;
6757;SDS011;3416;53.074;8.822;2022-08-01T03:01:30;11.37;;;10.23;;
6757;SDS011;3416;53.074;8.822;2022-08-01T03:04:02;11.40;;;10.30;;
6757;SDS011;3416;53.074;8.822;2022-08-01T03:06:31;15.40;;;11.93;;
6757;SDS011;3416;53.074;8.822;2022-08-01T03:08:58;11.87;;;10.67;;
6757;SDS011;3416;53.074;8.822;2022-08-01T03:11:27;10.87;;;9.77;;
6757;SDS011;3416;53.074;8.822;2022-08-01T03:13:56;9.23;;;8.40;;
6757;SDS011;3416;53.074;8.822;2022-08-01T03:16:27;10.30;;;9.23;;
6757;SDS011;3416;53.074;8.822;2022-08-01T03:18:56;14.10;;;9.50;;
6757;SDS011;3416;53.074;8.822;2022-08-01T03:21:26;10.87;;;9.60;;
6757;SDS011;3416;53.074;8.822;2022-08-01T03:23:56;10.90;;;9.80;;
6757;SDS011;3416;53.074;8.822;2022-08-01T03:26:26;9.53;;;7.93;;
6757;SDS011;3416;53.074;8.822;2022-08-01T03:28:55;9.90;;;7.83;;
6757;SDS011;3416;53.074;8.822;2022-08-01T03:31:24;10.03;;;9.00;;
6757;SDS011;3416;53.074;8.822;2022-08-01T03:33:52;9.27;;;8.27;;
6757;SDS011;3416;53.074;8.822;2022-08-01T03:36:20;12.53;;;9.20;;
6757;SDS011;3416;53.074;8.822;2022-08-01T03:38:52;9.00;;;8.10;;
6757;SDS011;3416;53.074;8.822;2022-08-01T03:41:25;9.30;;;8.20;;
6757;SDS011;3416;53.074;8.822;2022-08-01T03:43:55;8.47;;;7.63;;
6757;SDS011;3416;53.074;8.822;2022-08-01T03:46:26;7.10;;;6.40;;
6757;SDS011;3416;53.074;8.822;2022-08-01T03:48:58;7.47;;;6.70;;
6757;SDS011;3416;53.074;8.822;2022-08-01T03:51:29;6.97;;;5.90;;
6757;SDS011;3416;53.074;8.822;2022-08-01T03:54:00;7.00;;;6.30;;
6757;SDS011;3416;53.074;8.822;2022-08-01T03:56:30;6.07;;;5.47;;
6757;SDS011;3416;53.074;8.822;2022-08-01T03:58:58;6.60;;;5.90;;
6757;SDS011;3416;53.074;8.822;2022-08-01T04:01:27;6.10;;;5.47;;
6757;SDS011;3416;53.074;8.822;2022-08-01T04:03:55;6.23;;;5.63;;
6757;SDS011;3416;53.074;8.822;2022-08-01T04:06:22;6.80;;;5.47;;
6757;SDS011;3416;53.074;8.822;2022-08-01T04:08:49;6.10;;;5.60;;
6757;SDS011;3416;53.074;8.822;2022-08-01T04:11:23;7.33;;;5.80;;
6757;SDS011;3416;53.074;8.822;2022-08-01T04:13:52;7.80;;;7.10;;
6757;SDS011;3416;53.074;8.822;2022-08-01T04:16:20;8.17;;;7.47;;
6757;SDS011;3416;53.074;8.822;2022-08-01T04:18:47;8.60;;;7.80;;
6757;SDS011;3416;53.074;8.822;2022-08-01T04:21:15;9.93;;;8.50;;
6757;SDS011;3416;53.074;8.822;2022-08-01T04:23:45;9.47;;;8.57;;
6757;SDS011;3416;53.074;8.822;2022-08-01T04:26:13;11.77;;;8.63;;
6757;SDS011;3416;53.074;8.822;2022-08-01T04:28:44;7.73;;;6.93;;
6757;SDS011;3416;53.074;8.822;2022-08-01T04:31:12;8.90;;;8.00;;
6757;SDS011;3416;53.074;8.822;2022-08-01T04:33:43;6.80;;;5.47;;
6757;SDS011;3416;53.074;8.822;2022-08-01T04:36:15;4.43;;;3.63;;
6757;SDS011;3416;53.074;8.822;2022-08-01T04:38:46;4.70;;;4.30;;
6757;SDS011;3416;53.074;8.822;2022-08-01T04:41:16;6.00;;;4.77;;
6757;SDS011;3416;53.074;8.822;2022-08-01T04:43:46;4.10;;;3.13;;
6757;SDS011;3416;53.074;8.822;2022-08-01T04:46:15;5.70;;;3.60;;
6757;SDS011;3416;53.074;8.822;2022-08-01T04:48:42;2.83;;;2.20;;
6757;SDS011;3416;53.074;8.822;2022-08-01T04:51:13;3.50;;;3.20;;
6757;SDS011;3416;53.074;8.822;2022-08-01T04:53:41;1.67;;;1.57;;
6757;SDS011;3416;53.074;8.822;2022-08-01T04:56:08;3.53;;;1.63;;
6757;SDS011;3416;53.074;8.822;2022-08-01T04:58:38;2.57;;;2.20;;
6757;SDS011;3416;53.074;8.822;2022-08-01T05:01:07;5.07;;;1.90;;
6757;SDS011;3416;53.074;8.822;2022-08-01T05:03:34;4.80;;;2.00;;
6757;SDS011;3416;53.074;8.822;2022-08-01T05:06:01;4.20;;;1.97;;
6757;SDS011;3416;53.074;8.822;2022-08-01T05:08:28;4.10;;;1.73;;
6757;SDS011;3416;53.074;8.822;2022-08-01T05:10:55;4.10;;;1.67;;
6757;SDS011;3416;53.074;8.822;2022-08-01T05:13:22;3.17;;;2.57;;
6757;SDS011;3416;53.074;8.822;2022-08-01T05:15:48;4.73;;;2.83;;
6757;SDS011;3416;53.074;8.822;2022-08-01T05:18:17;2.90;;;1.67;;
6757;SDS011;3416;53.074;8.822;2022-08-01T05:20:43;3.90;;;1.90;;
6757;SDS011;3416;53.074;8.822;2022-08-01T05:23:10;2.40;;;2.00;;
6757;SDS011;3416;53.074;8.822;2022-08-01T05:25:37;2.37;;;1.80;;
6757;SDS011;3416;53.074;8.822;2022-08-01T05:28:04;2.90;;;1.87;;
6757;SDS011;3416;53.074;8.822;2022-08-01T05:30:31;3.13;;;1.93;;
6757;SDS011;3416;53.074;8.822;2022-08-01T05:32:58;3.00;;;1.93;;
6757;SDS011;3416;53.074;8.822;2022-08-01T05:35:26;4.07;;;2.33;;
6757;SDS011;3416;53.074;8.822;2022-08-01T05:37:53;4.50;;;2.30;;
6757;SDS011;3416;53.074;8.822;2022-08-01T05:40:20;2.30;;;2.07;;
6757;SDS011;3416;53.074;8.822;2022-08-01T05:42:47;4.40;;;2.40;;
6757;SDS011;3416;53.074;8.822;2022-08-01T05:45:14;4.53;;;2.43;;
6757;SDS011;3416;53.074;8.822;2022-08-01T05:47:41;10.03;;;2.67;;
6757;SDS011;3416;53.074;8.822;2022-08-01T05:50:08;3.13;;;2.60;;
6757;SDS011;3416;53.074;8.822;2022-08-01T05:52:36;6.20;;;3.10;;
6757;SDS011;3416;53.074;8.822;2022-08-01T05:55:04;7.03;;;4.00;;
6757;SDS011;3416;53.074;8.822;2022-08-01T05:57:32;6.00;;;3.97;;
6757;SDS011;3416;53.074;8.822;2022-08-01T05:59:59;4.10;;;3.00;;
6757;SDS011;3416;53.074;8.822;2022-08-01T06:02:27;5.87;;;3.77;;
6757;SDS011;3416;53.074;8.822;2022-08-01T06:04:54;10.60;;;3.53;;
6757;SDS011;3416;53.074;8.822;2022-08-01T06:07:21;7.43;;;3.27;;
6757;SDS011;3416;53.074;8.822;2022-08-01T06:09:50;8.00;;;2.93;;
6757;SDS011;3416;53.074;8.822;2022-08-01T06:12:16;6.57;;;3.57;;
6757;SDS011;3416;53.074;8.822;2022-08-01T06:14:43;10.20;;;3.97;;
6757;SDS011;3416;53.074;8.822;2022-08-01T06:17:10;13.00;;;4.17;;
6757;SDS011;3416;53.074;8.822;2022-08-01T06:19:37;7.40;;;3.90;;
6757;SDS011;3416;53.074;8.822;2022-08-01T06:22:04;8.87;;;3.97;;
6757;SDS011;3416;53.074;8.822;2022-08-01T06:24:31;10.93;;;4.37;;
6757;SDS011;3416;53.074;8.822;2022-08-01T06:26:59;12.33;;;4.63;;
6757;SDS011;3416;53.074;8.822;2022-08-01T06:29:26;7.40;;;3.40;;
6757;SDS011;3416;53.074;8.822;2022-08-01T06:31:55;11.03;;;4.43;;
6757;SDS011;3416;53.074;8.822;2022-08-01T06:34:22;12.73;;;3.80;;
6757;SDS011;3416;53.074;8.822;2022-08-01T06:36:50;7.87;;;4.00;;
6757;SDS011;3416;53.074;8.822;2022-08-01T06:39:17;9.03;;;3.90;;
6757;SDS011;3416;53.074;8.822;2022-08-01T06:41:44;13.90;;;4.23;;
6757;SDS011;3416;53.074;8.822;2022-08-01T06:44:13;9.40;;;5.20;;
6757;SDS011;3416;53.074;8.822;2022-08-01T06:46:40;18.03;;;5.20;;
6757;SDS011;3416;53.074;8.822;2022-08-01T06:49:07;11.77;;;5.30;;
6757;SDS011;3416;53.074;8.822;2022-08-01T06:51:34;15.63;;;7.67;;
6757;SDS011;3416;53.074;8.822;2022-08-01T06:54:01;16.23;;;4.90;;
6757;SDS011;3416;53.074;8.822;2022-08-01T06:56:28;10.07;;;4.00;;
6757;SDS011;3416;53.074;8.822;2022-08-01T06:58:55;7.80;;;4.80;;
6757;SDS011;3416;53.074;8.822;2022-08-01T07:01:27;16.90;;;4.57;;
6757;SDS011;3416;53.074;8.822;2022-08-01T07:03:54;11.53;;;4.93;;
6757;SDS011;3416;53.074;8.822;2022-08-01T07:06:22;14.63;;;4.73;;
6757;SDS011;3416;53.074;8.822;2022-08-01T07:08:49;21.17;;;5.73;;
6757;SDS011;3416;53.074;8.822;2022-08-01T07:11:16;7.80;;;4.77;;
6757;SDS011;3416;53.074;8.822;2022-08-01T07:13:43;14.07;;;5.90;;
6757;SDS011;3416;53.074;8.822;2022-08-01T07:16:11;12.80;;;5.73;;
6757;SDS011;3416;53.074;8.822;2022-08-01T07:18:39;13.83;;;5.53;;
6757;SDS011;3416;53.074;8.822;2022-08-01T07:21:07;21.70;;;8.27;;
6757;SDS011;3416;53.074;8.822;2022-08-01T07:23:34;16.83;;;5.50;;
6757;SDS011;3416;53.074;8.822;2022-08-01T07:26:02;12.20;;;4.57;;
6757;SDS011;3416;53.074;8.822;2022-08-01T07:28:30;12.73;;;4.17;;
6757;SDS011;3416;53.074;8.822;2022-08-01T07:30:57;16.23;;;5.57;;
6757;SDS011;3416;53.074;8.822;2022-08-01T07:33:23;14.33;;;4.43;;
6757;SDS011;3416;53.074;8.822;2022-08-01T07:35:52;15.03;;;5.30;;
6757;SDS011;3416;53.074;8.822;2022-08-01T07:38:19;9.10;;;3.70;;
6757;SDS011;3416;53.074;8.822;2022-08-01T07:40:47;15.90;;;5.30;;
6757;SDS011;3416;53.074;8.822;2022-08-01T07:43:14;15.77;;;5.13;;
6757;SDS011;3416;53.074;8.822;2022-08-01T07:45:41;17.13;;;4.73;;
6757;SDS011;3416;53.074;8.822;2022-08-01T07:48:08;12.00;;;4.37;;
6757;SDS011;3416;53.074;8.822;2022-08-01T07:50:35;10.00;;;4.00;;
6757;SDS011;3416;53.074;8.822;2022-08-01T07:53:03;12.57;;;4.60;;
6757;SDS011;3416;53.074;8.822;2022-08-01T07:55:30;15.10;;;4.57;;
6757;SDS011;3416;53.074;8.822;2022-08-01T07:57:57;15.50;;;4.90;;
6757;SDS011;3416;53.074;8.822;2022-08-01T08:00:24;11.23;;;4.80;;
6757;SDS011;3416;53.074;8.822;2022-08-01T08:02:52;20.63;;;5.43;;
6757;SDS011;3416;53.074;8.822;2022-08-01T08:05:19;12.50;;;5.03;;
6757;SDS011;3416;53.074;8.822;2022-08-01T08:07:46;8.73;;;4.57;;
6757;SDS011;3416;53.074;8.822;2022-08-01T08:10:14;12.77;;;4.57;;
6757;SDS011;3416;53.074;8.822;2022-08-01T08:12:41;10.00;;;4.27;;
6757;SDS011;3416;53.074;8.822;2022-08-01T08:15:09;9.27;;;3.73;;
6757;SDS011;3416;53.074;8.822;2022-08-01T08:17:37;13.17;;;4.90;;
6757;SDS011;3416;53.074;8.822;2022-08-01T08:20:06;18.80;;;5.93;;
6757;SDS011;3416;53.074;8.822;2022-08-01T08:22:34;9.10;;;3.60;;
6757;SDS011;3416;53.074;8.822;2022-08-01T08:25:00;15.93;;;3.80;;
6757;SDS011;3416;53.074;8.822;2022-08-01T08:27:29;6.87;;;2.50;;
6757;SDS011;3416;53.074;8.822;2022-08-01T08:29:56;14.17;;;5.00;;
6757;SDS011;3416;53.074;8.822;2022-08-01T08:32:24;11.40;;;3.23;;
6757;SDS011;3416;53.074;8.822;2022-08-01T08:35:02;8.23;;;2.77;;
6757;SDS011;3416;53.074;8.822;2022-08-01T08:37:29;9.03;;;3.07;;
6757;SDS011;3416;53.074;8.822;2022-08-01T08:39:57;9.60;;;3.87;;
6757;SDS011;3416;53.074;8.822;2022-08-01T08:42:23;10.57;;;3.50;;
6757;SDS011;3416;53.074;8.822;2022-08-01T08:44:52;10.87;;;3.53;;
6757;SDS011;3416;53.074;8.822;2022-08-01T08:47:21;14.97;;;4.00;;
6757;SDS011;3416;53.074;8.822;2022-08-01T08:49:51;12.70;;;4.47;;
6757;SDS011;3416;53.074;8.822;2022-08-01T08:52:20;14.27;;;4.50;;
6757;SDS011;3416;53.074;8.822;2022-08-01T08:54:48;14.93;;;3.60;;
6757;SDS011;3416;53.074;8.822;2022-08-01T08:57:18;15.93;;;3.43;;
6757;SDS011;3416;53.074;8.822;2022-08-01T08:59:46;8.50;;;2.43;;
6757;SDS011;3416;53.074;8.822;2022-08-01T09:02:15;10.83;;;3.20;;
6757;SDS011;3416;53.074;8.822;2022-08-01T09:04:42;13.53;;;3.63;;
6757;SDS011;3416;53.074;8.822;2022-08-01T09:07:09;7.93;;;3.33;;
6757;SDS011;3416;53.074;8.822;2022-08-01T09:09:36;14.60;;;3.03;;
6757;SDS011;3416;53.074;8.822;2022-08-01T09:12:04;10.43;;;3.10;;
6757;SDS011;3416;53.074;8.822;2022-08-01T09:14:31;8.90;;;4.60;;
6757;SDS011;3416;53.074;8.822;2022-08-01T09:17:02;16.50;;;3.13;;
6757;SDS011;3416;53.074;8.822;2022-08-01T09:19:36;15.23;;;3.03;;
6757;SDS011;3416;53.074;8.822;2022-08-01T09:22:05;8.27;;;3.27;;
6757;SDS011;3416;53.074;8.822;2022-08-01T09:24:34;7.03;;;2.70;;
6757;SDS011;3416;53.074;8.822;2022-08-01T09:27:14;6.43;;;2.47;;
6757;SDS011;3416;53.074;8.822;2022-08-01T09:29:43;13.53;;;3.37;;
6757;SDS011;3416;53.074;8.822;2022-08-01T09:32:13;4.23;;;2.20;;
6757;SDS011;3416;53.074;8.822;2022-08-01T09:34:41;11.67;;;3.03;;
6757;SDS011;3416;53.074;8.822;2022-08-01T09:37:08;11.23;;;2.80;;
6757;SDS011;3416;53.074;8.822;2022-08-01T09:39:36;10.80;;;2.90;;
6757;SDS011;3416;53.074;8.822;2022-08-01T09:42:21;10.10;;;2.77;;
6757;SDS011;3416;53.074;8.822;2022-08-01T09:44:49;10.20;;;3.17;;
6757;SDS011;3416;53.074;8.822;2022-08-01T09:47:19;8.43;;;2.67;;
6757;SDS011;3416;53.074;8.822;2022-08-01T09:49:52;7.97;;;2.67;;
6757;SDS011;3416;53.074;8.822;2022-08-01T09:52:21;15.67;;;3.70;;
6757;SDS011;3416;53.074;8.822;2022-08-01T09:54:51;7.27;;;2.70;;
6757;SDS011;3416;53.074;8.822;2022-08-01T09:57:20;12.30;;;2.57;;
6757;SDS011;3416;53.074;8.822;2022-08-01T09:59:48;6.80;;;2.80;;
6757;SDS011;3416;53.074;8.822;2022-08-01T10:02:26;7.17;;;2.70;;
6757;SDS011;3416;53.074;8.822;2022-08-01T10:04:58;10.43;;;2.10;;
6757;SDS011;3416;53.074;8.822;2022-08-01T10:07:25;6.83;;;2.60;;
6757;SDS011;3416;53.074;8.822;2022-08-01T10:09:52;6.37;;;2.30;;
6757;SDS011;3416;53.074;8.822;2022-08-01T10:12:20;7.87;;;2.00;;
6757;SDS011;3416;53.074;8.822;2022-08-01T10:14:49;9.13;;;2.53;;
6757;SDS011;3416;53.074;8.822;2022-08-01T10:17:20;7.40;;;2.20;;
6757;SDS011;3416;53.074;8.822;2022-08-01T10:19:50;5.37;;;1.97;;
6757;SDS011;3416;53.074;8.822;2022-08-01T10:22:24;4.23;;;1.93;;
6757;SDS011;3416;53.074;8.822;2022-08-01T10:24:53;5.80;;;2.57;;
6757;SDS011;3416;53.074;8.822;2022-08-01T10:27:21;7.37;;;2.27;;
6757;SDS011;3416;53.074;8.822;2022-08-01T10:29:50;7.60;;;2.20;;
6757;SDS011;3416;53.074;8.822;2022-08-01T10:32:21;7.03;;;1.97;;
6757;SDS011;3416;53.074;8.822;2022-08-01T10:34:49;6.20;;;2.83;;
6757;SDS011;3416;53.074;8.822;2022-08-01T10:37:18;7.50;;;1.80;;
6757;SDS011;3416;53.074;8.822;2022-08-01T10:39:46;7.73;;;2.57;;
6757;SDS011;3416;53.074;8.822;2022-08-01T10:42:13;8.53;;;2.27;;
6757;SDS011;3416;53.074;8.822;2022-08-01T10:44:40;15.13;;;2.80;;
6757;SDS011;3416;53.074;8.822;2022-08-01T10:47:12;8.33;;;1.93;;
6757;SDS011;3416;53.074;8.822;2022-08-01T10:49:41;17.20;;;2.83;;
6757;SDS011;3416;53.074;8.822;2022-08-01T10:52:15;10.97;;;2.30;;
6757;SDS011;3416;53.074;8.822;2022-08-01T10:54:43;9.30;;;2.30;;
6757;SDS011;3416;53.074;8.822;2022-08-01T10:57:11;11.07;;;2.50;;
6757;SDS011;3416;53.074;8.822;2022-08-01T10:59:47;10.90;;;2.97;;
6757;SDS011;3416;53.074;8.822;2022-08-01T11:02:24;10.07;;;3.20;;
6757;SDS011;3416;53.074;8.822;2022-08-01T11:04:54;7.57;;;2.10;;
6757;SDS011;3416;53.074;8.822;2022-08-01T11:07:23;8.00;;;2.30;;
6757;SDS011;3416;53.074;8.822;2022-08-01T11:10:03;10.83;;;4.00;;
6757;SDS011;3416;53.074;8.822;2022-08-01T11:12:39;10.00;;;2.07;;
6757;SDS011;3416;53.074;8.822;2022-08-01T11:15:20;6.07;;;3.00;;
6757;SDS011;3416;53.074;8.822;2022-08-01T11:17:53;7.20;;;2.40;;
6757;SDS011;3416;53.074;8.822;2022-08-01T11:20:22;9.13;;;3.20;;
6757;SDS011;3416;53.074;8.822;2022-08-01T11:26:07;6.00;;;2.60;;
6757;SDS011;3416;53.074;8.822;2022-08-01T11:28:44;10.73;;;2.77;;
6757;SDS011;3416;53.074;8.822;2022-08-01T11:31:34;8.87;;;3.30;;
6757;SDS011;3416;53.074;8.822;2022-08-01T11:34:01;8.50;;;2.70;;
6757;SDS011;3416;53.074;8.822;2022-08-01T11:36:28;10.40;;;2.60;;
6757;SDS011;3416;53.074;8.822;2022-08-01T11:39:12;12.73;;;1.80;;
6757;SDS011;3416;53.074;8.822;2022-08-01T11:41:40;10.93;;;2.53;;
6757;SDS011;3416;53.074;8.822;2022-08-01T11:44:10;8.40;;;2.70;;
6757;SDS011;3416;53.074;8.822;2022-08-01T11:46:48;8.70;;;2.30;;
6757;SDS011;3416;53.074;8.822;2022-08-01T11:49:27;15.10;;;3.60;;
6757;SDS011;3416;53.074;8.822;2022-08-01T11:52:11;6.73;;;3.53;;
6757;SDS011;3416;53.074;8.822;2022-08-01T11:54:40;12.67;;;3.70;;
6757;SDS011;3416;53.074;8.822;2022-08-01T11:57:09;8.60;;;2.53;;
6757;SDS011;3416;53.074;8.822;2022-08-01T11:59:39;11.37;;;3.83;;
6757;SDS011;3416;53.074;8.822;2022-08-01T12:02:18;15.37;;;3.90;;
6757;SDS011;3416;53.074;8.822;2022-08-01T12:04:49;7.60;;;2.80;;
6757;SDS011;3416;53.074;8.822;2022-08-01T12:07:18;8.83;;;3.47;;
6757;SDS011;3416;53.074;8.822;2022-08-01T12:09:46;7.37;;;3.60;;
6757;SDS011;3416;53.074;8.822;2022-08-01T12:12:17;10.03;;;2.70;;
6757;SDS011;3416;53.074;8.822;2022-08-01T12:14:46;8.30;;;2.90;;
6757;SDS011;3416;53.074;8.822;2022-08-01T12:17:20;6.97;;;2.30;;
6757;SDS011;3416;53.074;8.822;2022-08-01T12:19:53;7.00;;;2.77;;
6757;SDS011;3416;53.074;8.822;2022-08-01T12:22:22;11.53;;;2.80;;
6757;SDS011;3416;53.074;8.822;2022-08-01T12:24:49;10.17;;;2.80;;
6757;SDS011;3416;53.074;8.822;2022-08-01T12:27:23;14.00;;;2.50;;
6757;SDS011;3416;53.074;8.822;2022-08-01T12:29:55;4.30;;;2.20;;
6757;SDS011;3416;53.074;8.822;2022-08-01T12:32:24;5.03;;;1.80;;
6757;SDS011;3416;53.074;8.822;2022-08-01T12:34:55;6.23;;;2.20;;
6757;SDS011;3416;53.074;8.822;2022-08-01T12:37:23;9.23;;;3.13;;
6757;SDS011;3416;53.074;8.822;2022-08-01T12:39:50;12.27;;;3.60;;
6757;SDS011;3416;53.074;8.822;2022-08-01T12:42:17;9.67;;;2.67;;
6757;SDS011;3416;53.074;8.822;2022-08-01T12:44:45;6.77;;;2.47;;
6757;SDS011;3416;53.074;8.822;2022-08-01T12:47:15;5.73;;;2.50;;
6757;SDS011;3416;53.074;8.822;2022-08-01T12:49:43;9.10;;;3.60;;
6757;SDS011;3416;53.074;8.822;2022-08-01T12:52:10;10.93;;;3.87;;
6757;SDS011;3416;53.074;8.822;2022-08-01T12:57:33;10.70;;;2.43;;
6757;SDS011;3416;53.074;8.822;2022-08-01T13:02:51;8.73;;;3.63;;
6757;SDS011;3416;53.074;8.822;2022-08-01T13:05:40;3.10;;;1.90;;
6757;SDS011;3416;53.074;8.822;2022-08-01T13:08:09;4.23;;;1.70;;
6757;SDS011;3416;53.074;8.822;2022-08-01T13:10:37;7.00;;;4.70;;
6757;SDS011;3416;53.074;8.822;2022-08-01T13:13:04;9.57;;;3.93;;
6757;SDS011;3416;53.074;8.822;2022-08-01T13:15:33;3.90;;;2.43;;
6757;SDS011;3416;53.074;8.822;2022-08-01T13:20:49;8.10;;;3.60;;
6757;SDS011;3416;53.074;8.822;2022-08-01T13:23:16;6.40;;;3.20;;
6757;SDS011;3416;53.074;8.822;2022-08-01T13:25:51;7.83;;;4.37;;
6757;SDS011;3416;53.074;8.822;2022-08-01T13:28:20;8.13;;;3.73;;
6757;SDS011;3416;53.074;8.822;2022-08-01T13:30:56;10.67;;;2.30;;
6757;SDS011;3416;53.074;8.822;2022-08-01T13:33:28;6.50;;;2.57;;
6757;SDS011;3416;53.074;8.822;2022-08-01T13:36:09;8.70;;;2.60;;
6757;SDS011;3416;53.074;8.822;2022-08-01T13:38:37;3.93;;;2.00;;
6757;SDS011;3416;53.074;8.822;2022-08-01T13:41:21;7.43;;;2.73;;
6757;SDS011;3416;53.074;8.822;2022-08-01T13:43:48;8.10;;;2.97;;
6757;SDS011;3416;53.074;8.822;2022-08-01T13:46:16;6.10;;;2.80;;
6757;SDS011;3416;53.074;8.822;2022-08-01T13:48:44;5.47;;;2.40;;
6757;SDS011;3416;53.074;8.822;2022-08-01T13:51:11;11.50;;;2.87;;
6757;SDS011;3416;53.074;8.822;2022-08-01T13:53:39;5.10;;;2.30;;
6757;SDS011;3416;53.074;8.822;2022-08-01T13:56:06;8.00;;;2.10;;
6757;SDS011;3416;53.074;8.822;2022-08-01T13:58:33;7.40;;;2.20;;
6757;SDS011;3416;53.074;8.822;2022-08-01T14:01:00;8.87;;;3.00;;
6757;SDS011;3416;53.074;8.822;2022-08-01T14:03:27;8.30;;;2.23;;
6757;SDS011;3416;53.074;8.822;2022-08-01T14:05:55;7.57;;;2.80;;
6757;SDS011;3416;53.074;8.822;2022-08-01T14:08:22;8.20;;;2.43;;
6757;SDS011;3416;53.074;8.822;2022-08-01T14:10:49;6.17;;;2.90;;
6757;SDS011;3416;53.074;8.822;2022-08-01T14:13:17;7.07;;;2.10;;
6757;SDS011;3416;53.074;8.822;2022-08-01T14:15:43;9.77;;;2.57;;
6757;SDS011;3416;53.074;8.822;2022-08-01T14:18:10;6.90;;;3.57;;
6757;SDS011;3416;53.074;8.822;2022-08-01T14:20:38;9.10;;;3.33;;
6757;SDS011;3416;53.074;8.822;2022-08-01T14:23:06;10.33;;;2.67;;
6757;SDS011;3416;53.074;8.822;2022-08-01T14:25:33;7.83;;;1.93;;
6757;SDS011;3416;53.074;8.822;2022-08-01T14:28:01;6.30;;;2.17;;
6757;SDS011;3416;53.074;8.822;2022-08-01T14:30:28;6.13;;;2.50;;
6757;SDS011;3416;53.074;8.822;2022-08-01T14:32:55;7.13;;;2.20;;
6757;SDS011;3416;53.074;8.822;2022-08-01T14:35:22;8.50;;;2.73;;
6757;SDS011;3416;53.074;8.822;2022-08-01T14:37:49;4.80;;;2.10;;
6757;SDS011;3416;53.074;8.822;2022-08-01T14:40:17;6.60;;;2.63;;
6757;SDS011;3416;53.074;8.822;2022-08-01T14:42:44;6.00;;;2.23;;
6757;SDS011;3416;53.074;8.822;2022-08-01T14:45:11;6.53;;;2.63;;
6757;SDS011;3416;53.074;8.822;2022-08-01T14:50:32;6.80;;;2.13;;
6757;SDS011;3416;53.074;8.822;2022-08-01T14:52:59;6.17;;;2.00;;
6757;SDS011;3416;53.074;8.822;2022-08-01T14:55:27;7.77;;;2.37;;
6757;SDS011;3416;53.074;8.822;2022-08-01T14:57:54;9.90;;;3.20;;
6757;SDS011;3416;53.074;8.822;2022-08-01T15:00:21;10.03;;;2.17;;
6757;SDS011;3416;53.074;8.822;2022-08-01T15:02:47;3.87;;;1.80;;
6757;SDS011;3416;53.074;8.822;2022-08-01T15:05:14;7.70;;;2.43;;
6757;SDS011;3416;53.074;8.822;2022-08-01T15:07:41;5.07;;;2.77;;
6757;SDS011;3416;53.074;8.822;2022-08-01T15:10:08;6.00;;;2.80;;
6757;SDS011;3416;53.074;8.822;2022-08-01T15:12:37;7.70;;;2.47;;
6757;SDS011;3416;53.074;8.822;2022-08-01T15:15:04;7.57;;;3.20;;
6757;SDS011;3416;53.074;8.822;2022-08-01T15:17:32;5.50;;;2.33;;
6757;SDS011;3416;53.074;8.822;2022-08-01T15:20:02;7.20;;;1.93;;
6757;SDS011;3416;53.074;8.822;2022-08-01T15:22:31;6.20;;;2.10;;
6757;SDS011;3416;53.074;8.822;2022-08-01T15:24:59;6.43;;;2.63;;
6757;SDS011;3416;53.074;8.822;2022-08-01T15:27:28;12.53;;;3.03;;
6757;SDS011;3416;53.074;8.822;2022-08-01T15:29:56;5.90;;;2.60;;
6757;SDS011;3416;53.074;8.822;2022-08-01T15:32:23;5.27;;;3.20;;
6757;SDS011;3416;53.074;8.822;2022-08-01T15:34:50;5.50;;;2.20;;